Time,TemperatureF,DewpointF,PressureIn,WindDirection,WindDirectionDegrees,WindSpeedMPH,WindSpeedGustMPH,Humidity,HourlyPrecipIn,Conditions,Clouds,dailyrainin,SoftwareType,DateUTC
2013-01-13 00:03:00,19.2,12.2,30.01,NNW,337,6.0,-999.0,65,0.00,,,0.00,Custom/Perl,2013-01-13 06:03:00,
2013-01-13 00:08:00,19.1,12.3,30.01,NW,306,5.0,-999.0,66,0.00,,,0.00,Custom/Perl,2013-01-13 06:08:00,
2013-01-13 00:13:00,19.0,12.2,30.01,WNW,302,6.0,-999.0,66,0.00,,,0.00,Custom/Perl,2013-01-13 06:13:00,
2013-01-13 00:18:00,18.8,12.0,30.00,NW,320,7.0,-999.0,66,0.00,,,0.00,Custom/Perl,2013-01-13 06:18:00,
2013-01-13 00:23:00,18.7,12.1,30.00,NW,325,3.0,-999.0,67,0.00,,,0.00,Custom/Perl,2013-01-13 06:23:00,
2013-01-13 00:29:00,18.4,12.0,29.99,NW,325,4.0,-999.0,68,0.00,,,0.00,Custom/Perl,2013-01-13 06:29:00,
2013-01-13 00:34:00,18.2,12.0,29.99,North,354,8.0,-999.0,69,0.00,,,0.00,Custom/Perl,2013-01-13 06:34:00,
2013-01-13 00:39:00,18.1,11.9,29.99,West,276,5.0,-999.0,69,0.00,,,0.00,Custom/Perl,2013-01-13 06:39:00,
2013-01-13 00:44:00,18.1,11.9,30.00,NNW,329,3.0,-999.0,69,0.00,,,0.00,Custom/Perl,2013-01-13 06:44:00,
2013-01-13 00:49:00,18.1,11.9,30.01,North,360,7.0,-999.0,69,0.00,,,0.00,Custom/Perl,2013-01-13 06:49:00,
2013-01-13 00:54:00,18.1,11.9,30.02,NW,319,4.0,-999.0,69,0.00,,,0.00,Custom/Perl,2013-01-13 06:54:00,
2013-01-13 00:59:00,17.9,11.7,30.01,NW,308,5.0,-999.0,69,0.00,,,0.00,Custom/Perl,2013-01-13 06:59:00,
2013-01-13 01:04:00,17.7,11.5,30.01,WNW,283,3.0,-999.0,69,0.00,,,0.00,Custom/Perl,2013-01-13 07:04:00,
2013-01-13 01:09:00,17.6,11.2,30.02,WNW,288,4.0,-999.0,68,0.00,,,0.00,Custom/Perl,2013-01-13 07:09:00,
2013-01-13 01:14:00,17.4,11.0,30.03,NW,320,2.0,-999.0,68,0.00,,,0.00,Custom/Perl,2013-01-13 07:14:00,
2013-01-13 01:19:00,17.2,10.6,30.03,NW,309,8.0,-999.0,67,0.00,,,0.00,Custom/Perl,2013-01-13 07:19:00,
2013-01-13 01:24:00,17.1,10.3,30.03,NW,318,8.0,-999.0,66,0.00,,,0.00,Custom/Perl,2013-01-13 07:24:00,
2013-01-13 01:29:00,17.0,10.4,30.03,WNW,291,6.0,-999.0,67,0.00,,,0.00,Custom/Perl,2013-01-13 07:29:00,
2013-01-13 01:34:00,16.8,9.6,30.03,NNE,27,8.0,-999.0,64,0.00,,,0.00,Custom/Perl,2013-01-13 07:34:00,
2013-01-13 01:39:00,16.8,9.6,30.04,NNE,32,5.0,-999.0,64,0.00,,,0.00,Custom/Perl,2013-01-13 07:39:00,
2013-01-13 01:44:00,16.6,9.4,30.02,WNW,293,5.0,-999.0,64,0.00,,,0.00,Custom/Perl,2013-01-13 07:44:00,
2013-01-13 01:49:00,16.5,9.5,30.02,NW,316,3.0,-999.0,65,0.00,,,0.00,Custom/Perl,2013-01-13 07:49:00,
2013-01-13 01:54:00,16.4,9.4,30.03,NW,314,2.0,-999.0,65,0.00,,,0.00,Custom/Perl,2013-01-13 07:54:00,
2013-01-13 01:59:00,16.3,9.5,30.03,NW,304,4.0,-999.0,66,0.00,,,0.00,Custom/Perl,2013-01-13 07:59:00,
2013-01-13 02:04:00,16.2,9.4,30.04,NW,315,4.0,-999.0,66,0.00,,,0.00,Custom/Perl,2013-01-13 08:04:00,
2013-01-13 02:09:00,16.1,9.5,30.04,NW,311,2.0,-999.0,67,0.00,,,0.00,Custom/Perl,2013-01-13 08:09:00,
2013-01-13 02:14:00,15.9,9.5,30.04,NW,314,3.0,-999.0,68,0.00,,,0.00,Custom/Perl,2013-01-13 08:14:00,
2013-01-13 02:20:00,15.7,9.3,30.04,NE,41,0.0,-999.0,68,0.00,,,0.00,Custom/Perl,2013-01-13 08:20:00,
2013-01-13 02:25:00,15.6,9.2,30.04,NE,42,4.0,-999.0,68,0.00,,,0.00,Custom/Perl,2013-01-13 08:25:00,
2013-01-13 02:30:00,15.6,9.2,30.03,NW,305,5.0,-999.0,68,0.00,,,0.00,Custom/Perl,2013-01-13 08:30:00,
2013-01-13 02:35:00,15.6,9.2,30.05,NW,313,2.0,-999.0,68,0.00,,,0.00,Custom/Perl,2013-01-13 08:35:00,
2013-01-13 02:40:00,15.6,9.2,30.05,NNW,338,4.0,-999.0,68,0.00,,,0.00,Custom/Perl,2013-01-13 08:40:00,
2013-01-13 02:45:00,15.5,9.3,30.06,WNW,301,3.0,-999.0,69,0.00,,,0.00,Custom/Perl,2013-01-13 08:45:00,
2013-01-13 02:50:00,15.4,9.2,30.07,NW,314,4.0,-999.0,69,0.00,,,0.00,Custom/Perl,2013-01-13 08:50:00,
2013-01-13 02:55:00,15.4,9.2,30.06,NW,321,5.0,-999.0,69,0.00,,,0.00,Custom/Perl,2013-01-13 08:55:00,
2013-01-13 03:00:00,15.3,9.3,30.06,NW,305,1.0,-999.0,70,0.00,,,0.00,Custom/Perl,2013-01-13 09:00:00,
2013-01-13 03:05:00,15.1,9.1,30.06,East,88,2.0,-999.0,70,0.00,,,0.00,Custom/Perl,2013-01-13 09:05:00,
2013-01-13 03:10:00,15.1,9.1,30.05,NNE,20,2.0,-999.0,70,0.00,,,0.00,Custom/Perl,2013-01-13 09:10:00,
2013-01-13 03:15:00,15.0,9.0,30.06,NNW,342,2.0,-999.0,70,0.00,,,0.00,Custom/Perl,2013-01-13 09:15:00,
2013-01-13 03:20:00,15.0,9.0,30.06,NNW,345,4.0,-999.0,70,0.00,,,0.00,Custom/Perl,2013-01-13 09:20:00,
2013-01-13 03:25:00,15.1,9.1,30.07,North,349,2.0,-999.0,70,0.00,,,0.00,Custom/Perl,2013-01-13 09:25:00,
2013-01-13 03:30:00,15.1,9.1,30.06,NW,326,2.0,-999.0,70,0.00,,,0.00,Custom/Perl,2013-01-13 09:30:00,
2013-01-13 03:35:00,15.1,9.1,30.06,North,357,1.0,-999.0,70,0.00,,,0.00,Custom/Perl,2013-01-13 09:35:00,
2013-01-13 03:40:00,14.9,9.1,30.06,NW,309,2.0,-999.0,71,0.00,,,0.00,Custom/Perl,2013-01-13 09:40:00,
2013-01-13 03:45:00,14.9,9.1,30.06,North,11,1.0,-999.0,71,0.00,,,0.00,Custom/Perl,2013-01-13 09:45:00,
2013-01-13 03:50:00,14.8,9.0,30.06,NW,310,0.0,-999.0,71,0.00,,,0.00,Custom/Perl,2013-01-13 09:50:00,
2013-01-13 03:55:00,14.8,9.2,30.07,NNW,330,2.0,-999.0,72,0.00,,,0.00,Custom/Perl,2013-01-13 09:55:00,
2013-01-13 04:01:00,14.9,9.3,30.08,NNW,336,1.0,-999.0,72,0.00,,,0.00,Custom/Perl,2013-01-13 10:01:00,
2013-01-13 04:06:00,14.9,9.1,30.08,NNW,337,4.0,-999.0,71,0.00,,,0.00,Custom/Perl,2013-01-13 10:06:00,
2013-01-13 04:11:00,14.9,9.1,30.08,NNW,330,4.0,-999.0,71,0.00,,,0.00,Custom/Perl,2013-01-13 10:11:00,
2013-01-13 04:16:00,14.9,9.3,30.08,NW,310,4.0,-999.0,72,0.00,,,0.00,Custom/Perl,2013-01-13 10:16:00,
2013-01-13 04:21:00,14.8,9.2,30.07,WNW,296,3.0,-999.0,72,0.00,,,0.00,Custom/Perl,2013-01-13 10:21:00,
2013-01-13 04:26:00,14.8,9.2,30.07,NW,309,3.0,-999.0,72,0.00,,,0.00,Custom/Perl,2013-01-13 10:26:00,
2013-01-13 04:31:00,14.8,9.4,30.07,NW,314,4.0,-999.0,73,0.00,,,0.00,Custom/Perl,2013-01-13 10:31:00,
2013-01-13 04:36:00,14.8,9.4,30.07,NW,307,0.0,-999.0,73,0.00,,,0.00,Custom/Perl,2013-01-13 10:36:00,
2013-01-13 04:41:00,14.7,9.3,30.07,North,9,2.0,-999.0,73,0.00,,,0.00,Custom/Perl,2013-01-13 10:41:00,
2013-01-13 04:46:00,14.7,9.3,30.07,NW,319,2.0,-999.0,73,0.00,,,0.00,Custom/Perl,2013-01-13 10:46:00,
2013-01-13 04:51:00,14.5,9.3,30.06,ESE,110,4.0,-999.0,74,0.00,,,0.00,Custom/Perl,2013-01-13 10:51:00,
2013-01-13 04:56:00,14.5,9.3,30.06,NNW,341,4.0,-999.0,74,0.00,,,0.00,Custom/Perl,2013-01-13 10:56:00,
2013-01-13 05:01:00,14.3,9.1,30.06,NW,314,2.0,-999.0,74,0.00,,,0.00,Custom/Perl,2013-01-13 11:01:00,
2013-01-13 05:06:00,14.2,9.0,30.07,NW,308,4.0,-999.0,74,0.00,,,0.00,Custom/Perl,2013-01-13 11:06:00,
2013-01-13 05:11:00,14.1,8.9,30.07,NNW,337,5.0,-999.0,74,0.00,,,0.00,Custom/Perl,2013-01-13 11:11:00,
2013-01-13 05:16:00,14.0,8.8,30.07,NNW,330,2.0,-999.0,74,0.00,,,0.00,Custom/Perl,2013-01-13 11:16:00,
2013-01-13 05:21:00,13.9,8.9,30.08,WNW,288,6.0,-999.0,75,0.00,,,0.00,Custom/Perl,2013-01-13 11:21:00,
2013-01-13 05:26:00,13.9,8.9,30.08,West,272,0.0,-999.0,75,0.00,,,0.00,Custom/Perl,2013-01-13 11:26:00,
2013-01-13 05:31:00,13.8,8.8,30.08,NW,320,3.0,-999.0,75,0.00,,,0.00,Custom/Perl,2013-01-13 11:31:00,
2013-01-13 05:36:00,13.8,9.0,30.08,NNW,329,2.0,-999.0,76,0.00,,,0.00,Custom/Perl,2013-01-13 11:36:00,
2013-01-13 05:42:00,13.7,8.9,30.09,NNW,328,2.0,-999.0,76,0.00,,,0.00,Custom/Perl,2013-01-13 11:42:00,
2013-01-13 05:47:00,13.7,9.1,30.09,NW,309,1.0,-999.0,77,0.00,,,0.00,Custom/Perl,2013-01-13 11:47:00,
2013-01-13 05:52:00,13.7,9.1,30.09,NW,316,3.0,-999.0,77,0.00,,,0.00,Custom/Perl,2013-01-13 11:52:00,
2013-01-13 05:57:00,13.8,9.2,30.10,NNW,340,1.0,-999.0,77,0.00,,,0.00,Custom/Perl,2013-01-13 11:57:00,
2013-01-13 06:02:00,13.9,9.3,30.10,WNW,299,0.0,-999.0,77,0.00,,,0.00,Custom/Perl,2013-01-13 12:02:00,
2013-01-13 06:07:00,13.9,9.3,30.11,WNW,297,0.0,-999.0,77,0.00,,,0.00,Custom/Perl,2013-01-13 12:07:00,
2013-01-13 06:12:00,13.9,9.3,30.11,NW,310,2.0,-999.0,77,0.00,,,0.00,Custom/Perl,2013-01-13 12:12:00,
2013-01-13 06:17:00,13.8,9.2,30.11,NW,312,0.0,-999.0,77,0.00,,,0.00,Custom/Perl,2013-01-13 12:17:00,
2013-01-13 06:22:00,13.6,8.8,30.12,North,349,0.0,-999.0,76,0.00,,,0.00,Custom/Perl,2013-01-13 12:22:00,
2013-01-13 06:27:00,13.5,8.9,30.12,NNE,18,1.0,-999.0,77,0.00,,,0.00,Custom/Perl,2013-01-13 12:27:00,
2013-01-13 06:32:00,13.5,8.7,30.12,North,351,3.0,-999.0,76,0.00,,,0.00,Custom/Perl,2013-01-13 12:32:00,
2013-01-13 06:37:00,13.4,8.4,30.13,NW,319,2.0,-999.0,75,0.00,,,0.00,Custom/Perl,2013-01-13 12:37:00,
2013-01-13 06:42:00,13.3,8.3,30.12,NNW,338,3.0,-999.0,75,0.00,,,0.00,Custom/Perl,2013-01-13 12:42:00,
2013-01-13 06:47:00,13.2,8.0,30.13,NW,316,2.0,-999.0,74,0.00,,,0.00,Custom/Perl,2013-01-13 12:47:00,
2013-01-13 06:52:00,13.0,7.8,30.14,WNW,292,2.0,-999.0,74,0.00,,,0.00,Custom/Perl,2013-01-13 12:52:00,
2013-01-13 06:57:00,12.9,7.7,30.13,NNW,332,1.0,-999.0,74,0.00,,,0.00,Custom/Perl,2013-01-13 12:57:00,
2013-01-13 07:02:00,12.8,7.8,30.13,WNW,295,1.0,-999.0,75,0.00,,,0.00,Custom/Perl,2013-01-13 13:02:00,
2013-01-13 07:07:00,12.6,7.8,30.13,North,3,6.0,-999.0,76,0.00,,,0.00,Custom/Perl,2013-01-13 13:07:00,
2013-01-13 07:12:00,12.5,7.7,30.14,NW,317,1.0,-999.0,76,0.00,,,0.00,Custom/Perl,2013-01-13 13:12:00,
2013-01-13 07:18:00,12.4,7.6,30.13,NW,324,2.0,-999.0,76,0.00,,,0.00,Custom/Perl,2013-01-13 13:18:00,
2013-01-13 07:23:00,12.3,7.5,30.13,NW,312,0.0,-999.0,76,0.00,,,0.00,Custom/Perl,2013-01-13 13:23:00,
2013-01-13 07:28:00,12.1,7.3,30.14,NNW,333,2.0,-999.0,76,0.00,,,0.00,Custom/Perl,2013-01-13 13:28:00,
2013-01-13 07:33:00,12.1,7.3,30.15,NNW,331,1.0,-999.0,76,0.00,,,0.00,Custom/Perl,2013-01-13 13:33:00,
2013-01-13 07:38:00,11.9,7.1,30.15,North,349,3.0,-999.0,76,0.00,,,0.00,Custom/Perl,2013-01-13 13:38:00,
2013-01-13 07:43:00,11.9,7.1,30.15,NW,307,0.0,-999.0,76,0.00,,,0.00,Custom/Perl,2013-01-13 13:43:00,
2013-01-13 07:48:00,11.8,7.0,30.14,NNW,335,2.0,-999.0,76,0.00,,,0.00,Custom/Perl,2013-01-13 13:48:00,
2013-01-13 07:53:00,11.8,7.0,30.15,NW,309,2.0,-999.0,76,0.00,,,0.00,Custom/Perl,2013-01-13 13:53:00,
2013-01-13 07:58:00,11.9,7.1,30.15,NW,321,3.0,-999.0,76,0.00,,,0.00,Custom/Perl,2013-01-13 13:58:00,
2013-01-13 08:03:00,11.9,7.1,30.15,NNW,339,2.0,-999.0,76,0.00,,,0.00,Custom/Perl,2013-01-13 14:03:00,
2013-01-13 08:08:00,12.0,7.2,30.16,NW,323,4.0,-999.0,76,0.00,,,0.00,Custom/Perl,2013-01-13 14:08:00,
2013-01-13 08:13:00,12.1,7.3,30.16,NW,314,2.0,-999.0,76,0.00,,,0.00,Custom/Perl,2013-01-13 14:13:00,
2013-01-13 08:18:00,12.2,7.4,30.16,West,280,4.0,-999.0,76,0.00,,,0.00,Custom/Perl,2013-01-13 14:18:00,
2013-01-13 08:23:00,12.4,7.6,30.16,NW,308,0.0,-999.0,76,0.00,,,0.00,Custom/Perl,2013-01-13 14:23:00,
2013-01-13 08:28:00,12.5,7.7,30.16,NNW,333,3.0,-999.0,76,0.00,,,0.00,Custom/Perl,2013-01-13 14:28:00,
2013-01-13 08:34:00,12.6,7.6,30.17,North,354,7.0,-999.0,75,0.00,,,0.00,Custom/Perl,2013-01-13 14:34:00,
2013-01-13 08:39:00,12.6,7.6,30.17,NNW,346,3.0,-999.0,75,0.00,,,0.00,Custom/Perl,2013-01-13 14:39:00,
2013-01-13 08:44:00,12.6,7.6,30.17,North,356,7.0,-999.0,75,0.00,,,0.00,Custom/Perl,2013-01-13 14:44:00,
2013-01-13 08:49:00,12.6,7.4,30.18,NNW,327,3.0,-999.0,74,0.00,,,0.00,Custom/Perl,2013-01-13 14:49:00,
2013-01-13 08:54:00,12.7,7.7,30.18,NW,318,5.0,-999.0,75,0.00,,,0.00,Custom/Perl,2013-01-13 14:54:00,
2013-01-13 08:59:00,12.8,8.0,30.18,NW,314,3.0,-999.0,76,0.00,,,0.00,Custom/Perl,2013-01-13 14:59:00,
2013-01-13 09:04:00,13.0,8.2,30.18,West,270,2.0,-999.0,76,0.00,,,0.00,Custom/Perl,2013-01-13 15:04:00,
2013-01-13 09:09:00,13.3,8.5,30.18,WNW,298,4.0,-999.0,76,0.00,,,0.00,Custom/Perl,2013-01-13 15:09:00,
2013-01-13 09:14:00,13.4,8.4,30.18,NW,318,4.0,-999.0,75,0.00,,,0.00,Custom/Perl,2013-01-13 15:14:00,
2013-01-13 09:19:00,13.3,8.3,30.19,NW,314,7.0,-999.0,75,0.00,,,0.00,Custom/Perl,2013-01-13 15:19:00,
2013-01-13 09:24:00,13.7,8.7,30.19,NW,316,5.0,-999.0,75,0.00,,,0.00,Custom/Perl,2013-01-13 15:24:00,
2013-01-13 09:29:00,13.7,8.3,30.18,NNW,334,1.0,-999.0,73,0.00,,,0.00,Custom/Perl,2013-01-13 15:29:00,
2013-01-13 09:34:00,13.6,8.4,30.18,NNW,338,6.0,-999.0,74,0.00,,,0.00,Custom/Perl,2013-01-13 15:34:00,
2013-01-13 09:39:00,13.9,8.5,30.18,West,279,5.0,-999.0,73,0.00,,,0.00,Custom/Perl,2013-01-13 15:39:00,
2013-01-13 09:44:00,14.1,8.7,30.19,NNW,335,7.0,-999.0,73,0.00,,,0.00,Custom/Perl,2013-01-13 15:44:00,
2013-01-13 09:49:00,14.5,8.9,30.19,NW,310,2.0,-999.0,72,0.00,,,0.00,Custom/Perl,2013-01-13 15:49:00,
2013-01-13 09:54:00,14.8,9.0,30.19,WNW,297,3.0,-999.0,71,0.00,,,0.00,Custom/Perl,2013-01-13 15:54:00,
2013-01-13 09:59:00,14.9,8.9,30.19,NW,312,4.0,-999.0,70,0.00,,,0.00,Custom/Perl,2013-01-13 15:59:00,
2013-01-13 10:05:00,15.0,9.2,30.19,NW,323,4.0,-999.0,71,0.00,,,0.00,Custom/Perl,2013-01-13 16:05:00,
2013-01-13 10:10:00,15.1,9.1,30.20,NW,325,8.0,-999.0,70,0.00,,,0.00,Custom/Perl,2013-01-13 16:10:00,
2013-01-13 10:15:00,15.2,8.8,30.20,NW,309,5.0,-999.0,68,0.00,,,0.00,Custom/Perl,2013-01-13 16:15:00,
2013-01-13 10:20:00,15.3,8.9,30.20,WNW,293,3.0,-999.0,68,0.00,,,0.00,Custom/Perl,2013-01-13 16:20:00,
2013-01-13 10:25:00,15.5,8.9,30.20,NW,308,4.0,-999.0,67,0.00,,,0.00,Custom/Perl,2013-01-13 16:25:00,
2013-01-13 10:30:00,15.7,9.1,30.20,WNW,299,4.0,-999.0,67,0.00,,,0.00,Custom/Perl,2013-01-13 16:30:00,
2013-01-13 10:35:00,16.1,9.3,30.20,NNW,343,5.0,-999.0,66,0.00,,,0.00,Custom/Perl,2013-01-13 16:35:00,
2013-01-13 10:40:00,16.3,9.5,30.20,WNW,302,4.0,-999.0,66,0.00,,,0.00,Custom/Perl,2013-01-13 16:40:00,
2013-01-13 10:45:00,16.6,9.6,30.20,ENE,57,2.0,-999.0,65,0.00,,,0.00,Custom/Perl,2013-01-13 16:45:00,
2013-01-13 10:50:00,16.8,9.8,30.20,West,265,1.0,-999.0,65,0.00,,,0.00,Custom/Perl,2013-01-13 16:50:00,
2013-01-13 10:55:00,17.2,10.0,30.20,NW,305,4.0,-999.0,64,0.00,,,0.00,Custom/Perl,2013-01-13 16:55:00,
2013-01-13 11:00:00,17.0,9.8,30.20,NNW,328,3.0,-999.0,64,0.00,,,0.00,Custom/Perl,2013-01-13 17:00:00,
2013-01-13 11:05:00,17.7,10.7,30.20,North,10,4.0,-999.0,65,0.00,,,0.00,Custom/Perl,2013-01-13 17:05:00,
2013-01-13 11:10:00,18.0,10.6,30.20,West,261,2.0,-999.0,63,0.00,,,0.00,Custom/Perl,2013-01-13 17:10:00,
2013-01-13 11:15:00,18.3,10.9,30.20,North,349,1.0,-999.0,63,0.00,,,0.00,Custom/Perl,2013-01-13 17:15:00,
2013-01-13 11:20:00,18.5,10.9,30.19,NW,309,2.0,-999.0,62,0.00,,,0.00,Custom/Perl,2013-01-13 17:20:00,
2013-01-13 11:25:00,18.9,11.5,30.19,NE,37,3.0,-999.0,63,0.00,,,0.00,Custom/Perl,2013-01-13 17:25:00,
2013-01-13 11:31:00,19.0,11.6,30.19,NNE,13,5.0,-999.0,63,0.00,,,0.00,Custom/Perl,2013-01-13 17:31:00,
2013-01-13 11:36:00,19.2,11.4,30.18,NNW,335,2.0,-999.0,61,0.00,,,0.00,Custom/Perl,2013-01-13 17:36:00,
2013-01-13 11:41:00,19.4,11.6,30.18,NNE,21,5.0,-999.0,61,0.00,,,0.00,Custom/Perl,2013-01-13 17:41:00,
2013-01-13 11:46:00,19.8,12.0,30.18,NNW,329,5.0,-999.0,61,0.00,,,0.00,Custom/Perl,2013-01-13 17:46:00,
2013-01-13 11:51:00,19.7,11.7,30.18,NW,317,6.0,-999.0,60,0.00,,,0.00,Custom/Perl,2013-01-13 17:51:00,
2013-01-13 11:56:00,20.0,12.2,30.18,NW,315,6.0,-999.0,61,0.00,,,0.00,Custom/Perl,2013-01-13 17:56:00,
2013-01-13 12:01:00,20.8,13.0,30.18,SSE,155,1.0,-999.0,61,0.00,,,0.00,Custom/Perl,2013-01-13 18:01:00,
2013-01-13 12:06:00,21.0,13.0,30.18,North,349,8.0,-999.0,60,0.00,,,0.00,Custom/Perl,2013-01-13 18:06:00,
2013-01-13 12:11:00,21.1,12.9,30.18,NNW,347,3.0,-999.0,59,0.00,,,0.00,Custom/Perl,2013-01-13 18:11:00,
2013-01-13 12:16:00,21.1,12.9,30.18,NE,54,2.0,-999.0,59,0.00,,,0.00,Custom/Perl,2013-01-13 18:16:00,
2013-01-13 12:21:00,21.2,13.0,30.17,NNW,342,3.0,-999.0,59,0.00,,,0.00,Custom/Perl,2013-01-13 18:21:00,
2013-01-13 12:26:00,21.6,13.6,30.17,WNW,285,1.0,-999.0,60,0.00,,,0.00,Custom/Perl,2013-01-13 18:26:00,
2013-01-13 12:31:00,22.1,13.9,30.17,West,266,4.0,-999.0,59,0.00,,,0.00,Custom/Perl,2013-01-13 18:31:00,
2013-01-13 12:36:00,22.5,13.9,30.17,SW,236,3.0,-999.0,57,0.00,,,0.00,Custom/Perl,2013-01-13 18:36:00,
2013-01-13 12:41:00,22.8,14.2,30.17,WSW,248,4.0,-999.0,57,0.00,,,0.00,Custom/Perl,2013-01-13 18:41:00,
2013-01-13 12:46:00,22.6,14.2,30.16,NNW,347,1.0,-999.0,58,0.00,,,0.00,Custom/Perl,2013-01-13 18:46:00,
2013-01-13 12:51:00,23.0,14.4,30.16,NNW,345,4.0,-999.0,57,0.00,,,0.00,Custom/Perl,2013-01-13 18:51:00,
2013-01-13 12:56:00,23.0,14.2,30.16,West,268,1.0,-999.0,56,0.00,,,0.00,Custom/Perl,2013-01-13 18:56:00,
2013-01-13 13:02:00,23.1,14.5,30.16,NW,321,1.0,-999.0,57,0.00,,,0.00,Custom/Perl,2013-01-13 19:02:00,
2013-01-13 13:07:00,23.5,14.5,30.16,WNW,293,5.0,-999.0,55,0.00,,,0.00,Custom/Perl,2013-01-13 19:07:00,
2013-01-13 13:12:00,23.6,14.6,30.16,North,359,5.0,-999.0,55,0.00,,,0.00,Custom/Perl,2013-01-13 19:12:00,
2013-01-13 13:17:00,23.6,14.6,30.16,NNW,329,2.0,-999.0,55,0.00,,,0.00,Custom/Perl,2013-01-13 19:17:00,
2013-01-13 13:22:00,24.0,14.8,30.16,NW,326,6.0,-999.0,54,0.00,,,0.00,Custom/Perl,2013-01-13 19:22:00,
2013-01-13 13:27:00,24.3,14.7,30.17,North,4,8.0,-999.0,52,0.00,,,0.00,Custom/Perl,2013-01-13 19:27:00,
2013-01-13 13:32:00,24.3,14.5,30.16,West,281,5.0,-999.0,51,0.00,,,0.00,Custom/Perl,2013-01-13 19:32:00,
2013-01-13 13:37:00,24.8,14.8,30.16,NNW,347,7.0,-999.0,50,0.00,,,0.00,Custom/Perl,2013-01-13 19:37:00,
2013-01-13 13:42:00,24.7,14.7,30.16,North,358,6.0,-999.0,50,0.00,,,0.00,Custom/Perl,2013-01-13 19:42:00,
2013-01-13 13:47:00,24.7,14.3,30.16,NW,326,4.0,-999.0,48,0.00,,,0.00,Custom/Perl,2013-01-13 19:47:00,
2013-01-13 13:52:00,25.2,14.8,30.16,North,354,4.0,-999.0,48,0.00,,,0.00,Custom/Perl,2013-01-13 19:52:00,
2013-01-13 13:57:00,25.3,15.1,30.16,West,276,1.0,-999.0,49,0.00,,,0.00,Custom/Perl,2013-01-13 19:57:00,
2013-01-13 14:02:00,25.5,14.7,30.16,NNW,333,5.0,-999.0,46,0.00,,,0.00,Custom/Perl,2013-01-13 20:02:00,
2013-01-13 14:07:00,25.7,14.9,30.16,WNW,293,5.0,-999.0,46,0.00,,,0.00,Custom/Perl,2013-01-13 20:07:00,
2013-01-13 14:12:00,25.9,14.9,30.16,WNW,299,4.0,-999.0,45,0.00,,,0.00,Custom/Perl,2013-01-13 20:12:00,
2013-01-13 14:17:00,26.2,15.2,30.16,West,272,2.0,-999.0,45,0.00,,,0.00,Custom/Perl,2013-01-13 20:17:00,
2013-01-13 14:22:00,26.2,15.0,30.16,NNW,335,6.0,-999.0,44,0.00,,,0.00,Custom/Perl,2013-01-13 20:22:00,
2013-01-13 14:27:00,26.3,15.1,30.16,NNE,30,3.0,-999.0,44,0.00,,,0.00,Custom/Perl,2013-01-13 20:27:00,
2013-01-13 14:32:00,26.5,15.3,30.16,NNE,24,2.0,-999.0,44,0.00,,,0.00,Custom/Perl,2013-01-13 20:32:00,
2013-01-13 14:38:00,26.9,15.5,30.16,NNE,27,3.0,-999.0,43,0.00,,,0.00,Custom/Perl,2013-01-13 20:38:00,
2013-01-13 14:43:00,26.8,15.2,30.16,NW,319,5.0,-999.0,42,0.00,,,0.00,Custom/Perl,2013-01-13 20:43:00,
2013-01-13 14:48:00,26.5,14.9,30.16,NNW,332,2.0,-999.0,42,0.00,,,0.00,Custom/Perl,2013-01-13 20:48:00,
2013-01-13 14:53:00,26.6,14.8,30.16,NNW,333,3.0,-999.0,41,0.00,,,0.00,Custom/Perl,2013-01-13 20:53:00,
2013-01-13 14:58:00,26.9,15.3,30.17,WNW,293,0.0,-999.0,42,0.00,,,0.00,Custom/Perl,2013-01-13 20:58:00,
2013-01-13 15:03:00,27.1,15.5,30.17,NNE,32,2.0,-999.0,42,0.00,,,0.00,Custom/Perl,2013-01-13 21:03:00,
2013-01-13 15:08:00,26.7,15.1,30.17,NNW,348,3.0,-999.0,42,0.00,,,0.00,Custom/Perl,2013-01-13 21:08:00,
2013-01-13 15:13:00,26.6,14.6,30.17,North,359,1.0,-999.0,40,0.00,,,0.00,Custom/Perl,2013-01-13 21:13:00,
2013-01-13 15:18:00,26.8,15.4,30.17,NNW,331,1.0,-999.0,43,0.00,,,0.00,Custom/Perl,2013-01-13 21:18:00,
2013-01-13 15:23:00,27.2,15.4,30.18,NW,320,1.0,-999.0,41,0.00,,,0.00,Custom/Perl,2013-01-13 21:23:00,
2013-01-13 15:28:00,27.3,15.7,30.18,NNE,15,5.0,-999.0,42,0.00,,,0.00,Custom/Perl,2013-01-13 21:28:00,
2013-01-13 15:33:00,27.4,15.4,30.18,NNW,341,2.0,-999.0,40,0.00,,,0.00,Custom/Perl,2013-01-13 21:33:00,
2013-01-13 15:38:00,27.4,15.6,30.18,WSW,255,2.0,-999.0,41,0.00,,,0.00,Custom/Perl,2013-01-13 21:38:00,
2013-01-13 15:43:00,27.6,15.6,30.19,NNW,345,2.0,-999.0,40,0.00,,,0.00,Custom/Perl,2013-01-13 21:43:00,
2013-01-13 15:48:00,27.7,15.7,30.19,WNW,292,4.0,-999.0,40,0.00,,,0.00,Custom/Perl,2013-01-13 21:48:00,
2013-01-13 15:53:00,27.7,15.5,30.19,ENE,65,3.0,-999.0,39,0.00,,,0.00,Custom/Perl,2013-01-13 21:53:00,
2013-01-13 15:59:00,27.6,15.4,30.19,WNW,299,0.0,-999.0,39,0.00,,,0.00,Custom/Perl,2013-01-13 21:59:00,
2013-01-13 16:04:00,27.7,15.5,30.19,SW,236,2.0,-999.0,39,0.00,,,0.00,Custom/Perl,2013-01-13 22:04:00,
2013-01-13 16:09:00,27.5,15.3,30.19,NNW,333,3.0,-999.0,39,0.00,,,0.00,Custom/Perl,2013-01-13 22:09:00,
2013-01-13 16:25:00,26.6,14.4,30.20,NNW,333,1.0,-999.0,39,0.00,,,0.00,Custom/Perl,2013-01-13 22:25:00,
2013-01-13 16:35:00,26.3,14.3,30.20,NNW,345,5.0,-999.0,40,0.00,,,0.00,Custom/Perl,2013-01-13 22:35:00,
2013-01-13 16:40:00,26.1,14.1,30.20,NW,322,0.0,-999.0,40,0.00,,,0.00,Custom/Perl,2013-01-13 22:40:00,
2013-01-13 16:45:00,26.0,14.2,30.20,NNW,329,1.0,-999.0,41,0.00,,,0.00,Custom/Perl,2013-01-13 22:45:00,
2013-01-13 16:51:00,25.8,14.0,30.20,NNW,335,3.0,-999.0,41,0.00,,,0.00,Custom/Perl,2013-01-13 22:51:00,
2013-01-13 16:56:00,25.6,13.8,30.21,NNW,335,4.0,-999.0,41,0.00,,,0.00,Custom/Perl,2013-01-13 22:56:00,
2013-01-13 17:01:00,25.5,13.7,30.21,West,276,0.0,-999.0,41,0.00,,,0.00,Custom/Perl,2013-01-13 23:01:00,
2013-01-13 17:06:00,25.2,13.4,30.21,North,353,2.0,-999.0,41,0.00,,,0.00,Custom/Perl,2013-01-13 23:06:00,
2013-01-13 17:11:00,24.9,13.3,30.21,North,352,1.0,-999.0,42,0.00,,,0.00,Custom/Perl,2013-01-13 23:11:00,
2013-01-13 17:16:00,24.6,13.0,30.21,North,6,2.0,-999.0,42,0.00,,,0.00,Custom/Perl,2013-01-13 23:16:00,
2013-01-13 17:21:00,24.3,12.9,30.21,East,84,0.0,-999.0,43,0.00,,,0.00,Custom/Perl,2013-01-13 23:21:00,
2013-01-13 17:27:00,24.0,12.8,30.21,NNW,341,0.0,-999.0,44,0.00,,,0.00,Custom/Perl,2013-01-13 23:27:00,
2013-01-13 17:32:00,23.8,12.6,30.21,NNE,15,0.0,-999.0,44,0.00,,,0.00,Custom/Perl,2013-01-13 23:32:00,
2013-01-13 17:37:00,23.5,12.5,30.21,NW,319,0.0,-999.0,45,0.00,,,0.00,Custom/Perl,2013-01-13 23:37:00,
2013-01-13 17:42:00,23.2,12.2,30.21,NW,319,0.0,-999.0,45,0.00,,,0.00,Custom/Perl,2013-01-13 23:42:00,
2013-01-13 17:47:00,22.9,12.1,30.21,NW,323,0.0,-999.0,46,0.00,,,0.00,Custom/Perl,2013-01-13 23:47:00,
2013-01-13 17:52:00,22.6,12.0,30.21,NW,314,0.0,-999.0,47,0.00,,,0.00,Custom/Perl,2013-01-13 23:52:00,
2013-01-13 17:58:00,22.2,11.8,30.20,NW,311,0.0,-999.0,48,0.00,,,0.00,Custom/Perl,2013-01-13 23:58:00,
2013-01-13 18:03:00,22.0,11.8,30.20,NW,319,1.0,-999.0,49,0.00,,,0.00,Custom/Perl,2013-01-14 00:03:00,
2013-01-13 18:08:00,21.6,11.4,30.20,NW,316,0.0,-999.0,49,0.00,,,0.00,Custom/Perl,2013-01-14 00:08:00,
2013-01-13 18:13:00,21.2,11.2,30.20,NW,316,0.0,-999.0,50,0.00,,,0.00,Custom/Perl,2013-01-14 00:13:00,
2013-01-13 18:18:00,20.9,11.1,30.20,NW,317,0.0,-999.0,51,0.00,,,0.00,Custom/Perl,2013-01-14 00:18:00,
2013-01-13 18:23:00,20.4,10.8,30.21,NW,317,0.0,-999.0,52,0.00,,,0.00,Custom/Perl,2013-01-14 00:23:00,
2013-01-13 18:29:00,20.1,10.5,30.21,NW,317,0.0,-999.0,52,0.00,,,0.00,Custom/Perl,2013-01-14 00:29:00,
2013-01-13 18:34:00,19.7,10.3,30.22,NW,316,0.0,-999.0,53,0.00,,,0.00,Custom/Perl,2013-01-14 00:34:00,
2013-01-13 18:39:00,19.7,10.5,30.22,NW,316,0.0,-999.0,54,0.00,,,0.00,Custom/Perl,2013-01-14 00:39:00,
2013-01-13 18:44:00,19.2,10.2,30.22,NW,317,0.0,-999.0,55,0.00,,,0.00,Custom/Perl,2013-01-14 00:44:00,
2013-01-13 18:49:00,18.8,10.4,30.22,NW,317,0.0,-999.0,58,0.00,,,0.00,Custom/Perl,2013-01-14 00:49:00,
2013-01-13 18:54:00,18.3,10.3,30.23,NW,317,0.0,-999.0,60,0.00,,,0.00,Custom/Perl,2013-01-14 00:54:00,
2013-01-13 18:59:00,17.7,9.7,30.23,NW,316,0.0,-999.0,60,0.00,,,0.00,Custom/Perl,2013-01-14 00:59:00,
2013-01-13 19:05:00,17.1,9.5,30.23,NW,316,0.0,-999.0,62,0.00,,,0.00,Custom/Perl,2013-01-14 01:05:00,
2013-01-13 19:10:00,16.4,9.2,30.23,NW,317,0.0,-999.0,64,0.00,,,0.00,Custom/Perl,2013-01-14 01:10:00,
2013-01-13 19:15:00,15.9,8.9,30.23,NW,317,0.0,-999.0,65,0.00,,,0.00,Custom/Perl,2013-01-14 01:15:00,
2013-01-13 19:20:00,15.6,8.8,30.23,NW,317,0.0,-999.0,66,0.00,,,0.00,Custom/Perl,2013-01-14 01:20:00,
2013-01-13 19:25:00,15.9,8.9,30.23,NW,317,0.0,-999.0,65,0.00,,,0.00,Custom/Perl,2013-01-14 01:25:00,
2013-01-13 19:30:00,16.3,8.7,30.23,NW,317,0.0,-999.0,62,0.00,,,0.00,Custom/Perl,2013-01-14 01:30:00,
2013-01-13 19:35:00,16.5,8.9,30.23,NW,316,0.0,-999.0,62,0.00,,,0.00,Custom/Perl,2013-01-14 01:35:00,
2013-01-13 19:41:00,16.4,9.4,30.23,NW,317,0.0,-999.0,65,0.00,,,0.00,Custom/Perl,2013-01-14 01:41:00,
2013-01-13 19:46:00,15.9,9.1,30.23,NW,317,0.0,-999.0,66,0.00,,,0.00,Custom/Perl,2013-01-14 01:46:00,
2013-01-13 19:51:00,16.0,8.8,30.23,NW,317,0.0,-999.0,64,0.00,,,0.00,Custom/Perl,2013-01-14 01:51:00,
2013-01-13 19:56:00,16.2,8.8,30.23,NW,317,0.0,-999.0,63,0.00,,,0.00,Custom/Perl,2013-01-14 01:56:00,
2013-01-13 20:01:00,15.5,8.7,30.23,NW,316,0.0,-999.0,66,0.00,,,0.00,Custom/Perl,2013-01-14 02:01:00,
2013-01-13 20:06:00,15.2,8.4,30.24,NW,317,0.0,-999.0,66,0.00,,,0.00,Custom/Perl,2013-01-14 02:06:00,
2013-01-13 20:12:00,15.1,8.3,30.23,NW,317,0.0,-999.0,66,0.00,,,0.00,Custom/Perl,2013-01-14 02:12:00,
2013-01-13 20:17:00,15.6,8.4,30.23,NW,317,0.0,-999.0,64,0.00,,,0.00,Custom/Perl,2013-01-14 02:17:00,
2013-01-13 20:22:00,16.1,8.7,30.24,NW,317,0.0,-999.0,63,0.00,,,0.00,Custom/Perl,2013-01-14 02:22:00,
2013-01-13 20:27:00,16.3,8.9,30.24,NW,317,0.0,-999.0,63,0.00,,,0.00,Custom/Perl,2013-01-14 02:27:00,
2013-01-13 20:32:00,16.5,8.9,30.23,NW,317,0.0,-999.0,62,0.00,,,0.00,Custom/Perl,2013-01-14 02:32:00,
2013-01-13 20:37:00,16.7,9.1,30.23,NW,317,0.0,-999.0,62,0.00,,,0.00,Custom/Perl,2013-01-14 02:37:00,
2013-01-13 20:43:00,17.0,9.2,30.23,NW,316,1.0,-999.0,61,0.00,,,0.00,Custom/Perl,2013-01-14 02:43:00,
2013-01-13 20:48:00,17.3,9.5,30.23,NW,311,0.0,-999.0,61,0.00,,,0.00,Custom/Perl,2013-01-14 02:48:00,
2013-01-13 20:53:00,17.3,9.3,30.24,NW,311,0.0,-999.0,60,0.00,,,0.00,Custom/Perl,2013-01-14 02:53:00,
2013-01-13 20:58:00,17.4,9.4,30.24,NW,311,0.0,-999.0,60,0.00,,,0.00,Custom/Perl,2013-01-14 02:58:00,
2013-01-13 21:03:00,17.3,9.3,30.25,NW,311,0.0,-999.0,60,0.00,,,0.00,Custom/Perl,2013-01-14 03:03:00,
2013-01-13 21:08:00,16.9,9.3,30.25,NW,311,0.0,-999.0,62,0.00,,,0.00,Custom/Perl,2013-01-14 03:08:00,
2013-01-13 21:14:00,16.4,9.0,30.25,NW,311,0.0,-999.0,63,0.00,,,0.00,Custom/Perl,2013-01-14 03:14:00,
2013-01-13 21:19:00,16.4,9.0,30.25,NW,311,0.0,-999.0,63,0.00,,,0.00,Custom/Perl,2013-01-14 03:19:00,
2013-01-13 21:24:00,16.5,9.1,30.26,NW,311,0.0,-999.0,63,0.00,,,0.00,Custom/Perl,2013-01-14 03:24:00,
2013-01-13 21:29:00,16.6,9.2,30.25,NW,315,1.0,-999.0,63,0.00,,,0.00,Custom/Perl,2013-01-14 03:29:00,
2013-01-13 21:34:00,16.8,9.4,30.26,NW,324,2.0,-999.0,63,0.00,,,0.00,Custom/Perl,2013-01-14 03:34:00,
2013-01-13 21:39:00,17.0,9.6,30.26,NNW,328,1.0,-999.0,63,0.00,,,0.00,Custom/Perl,2013-01-14 03:39:00,
2013-01-13 21:45:00,16.9,9.5,30.27,NW,312,0.0,-999.0,63,0.00,,,0.00,Custom/Perl,2013-01-14 03:45:00,
2013-01-13 21:50:00,16.7,9.5,30.27,NW,325,0.0,-999.0,64,0.00,,,0.00,Custom/Perl,2013-01-14 03:50:00,
2013-01-13 21:55:00,16.5,9.3,30.27,NW,325,0.0,-999.0,64,0.00,,,0.00,Custom/Perl,2013-01-14 03:55:00,
2013-01-13 22:00:00,16.3,9.3,30.27,NW,325,0.0,-999.0,65,0.00,,,0.00,Custom/Perl,2013-01-14 04:00:00,
2013-01-13 22:05:00,16.2,9.2,30.27,NE,39,0.0,-999.0,65,0.00,,,0.00,Custom/Perl,2013-01-14 04:05:00,
2013-01-13 22:10:00,16.2,9.2,30.26,NW,309,1.0,-999.0,65,0.00,,,0.00,Custom/Perl,2013-01-14 04:10:00,
2013-01-13 22:15:00,16.1,9.3,30.26,NW,311,0.0,-999.0,66,0.00,,,0.00,Custom/Perl,2013-01-14 04:15:00,
2013-01-13 22:21:00,16.2,9.4,30.27,NW,316,1.0,-999.0,66,0.00,,,0.00,Custom/Perl,2013-01-14 04:21:00,
2013-01-13 22:26:00,16.3,9.5,30.27,NW,313,1.0,-999.0,66,0.00,,,0.00,Custom/Perl,2013-01-14 04:26:00,
2013-01-13 22:31:00,16.1,9.3,30.27,NW,316,1.0,-999.0,66,0.00,,,0.00,Custom/Perl,2013-01-14 04:31:00,
2013-01-13 22:37:00,15.9,9.3,30.27,NW,312,0.0,-999.0,67,0.00,,,0.00,Custom/Perl,2013-01-14 04:37:00,
2013-01-13 22:42:00,15.8,9.2,30.27,NW,304,0.0,-999.0,67,0.00,,,0.00,Custom/Perl,2013-01-14 04:42:00,
2013-01-13 22:47:00,15.7,9.1,30.27,NW,304,0.0,-999.0,67,0.00,,,0.00,Custom/Perl,2013-01-14 04:47:00,
2013-01-13 22:53:00,15.6,9.2,30.27,WNW,302,0.0,-999.0,68,0.00,,,0.00,Custom/Perl,2013-01-14 04:53:00,
2013-01-13 22:58:00,15.5,9.1,30.27,NW,310,0.0,-999.0,68,0.00,,,0.00,Custom/Perl,2013-01-14 04:58:00,
2013-01-13 23:03:00,15.3,9.1,30.28,NW,306,0.0,-999.0,69,0.00,,,0.00,Custom/Perl,2013-01-14 05:03:00,
2013-01-13 23:04:00,15.2,9.0,30.28,NW,307,1.0,-999.0,69,0.00,,,0.00,Custom/Perl,2013-01-14 05:04:00,
2013-01-13 23:10:00,15.4,9.2,30.28,WNW,302,0.0,-999.0,69,0.00,,,0.00,Custom/Perl,2013-01-14 05:10:00,
2013-01-13 23:15:00,15.3,9.1,30.28,WNW,303,0.0,-999.0,69,0.00,,,0.00,Custom/Perl,2013-01-14 05:15:00,
2013-01-13 23:20:00,15.2,9.2,30.28,NW,314,0.0,-999.0,70,0.00,,,0.00,Custom/Perl,2013-01-14 05:20:00,
2013-01-13 23:26:00,15.3,9.3,30.28,NW,311,0.0,-999.0,70,0.00,,,0.00,Custom/Perl,2013-01-14 05:26:00,
2013-01-13 23:31:00,15.4,9.2,30.28,NW,313,1.0,-999.0,69,0.00,,,0.00,Custom/Perl,2013-01-14 05:31:00,
2013-01-13 23:36:00,15.5,9.3,30.28,NNW,339,1.0,-999.0,69,0.00,,,0.00,Custom/Perl,2013-01-14 05:36:00,
2013-01-13 23:42:00,15.4,9.2,30.28,NW,308,1.0,-999.0,69,0.00,,,0.00,Custom/Perl,2013-01-14 05:42:00,
2013-01-13 23:47:00,15.2,9.2,30.28,NNW,335,0.0,-999.0,70,0.00,,,0.00,Custom/Perl,2013-01-14 05:47:00,
2013-01-13 23:52:00,15.1,9.1,30.28,North,352,1.0,-999.0,70,0.00,,,0.00,Custom/Perl,2013-01-14 05:52:00,
2013-01-13 23:57:00,15.1,9.1,30.29,North,4,0.0,-999.0,70,0.00,,,0.00,Custom/Perl,2013-01-14 05:57:00,